sensor_id;sensor_type;location;lat;lon;timestamp;P1;durP1;ratioP1;P2;durP2;ratioP2
25199;SDS011;33094;48.782;9.162;2023-07-16T00:01:19;6.70;;;4.47;;
25199;SDS011;33094;48.782;9.162;2023-07-16T00:03:44;5.27;;;4.47;;
25199;SDS011;33094;48.782;9.162;2023-07-16T00:06:10;6.00;;;3.47;;
25199;SDS011;33094;48.782;9.162;2023-07-16T00:08:35;6.20;;;3.83;;
25199;SDS011;33094;48.782;9.162;2023-07-16T00:11:02;7.40;;;5.23;;
25199;SDS011;33094;48.782;9.162;2023-07-16T00:13:28;4.63;;;4.10;;
25199;SDS011;33094;48.782;9.162;2023-07-16T00:15:54;3.70;;;3.40;;
25199;SDS011;33094;48.782;9.162;2023-07-16T00:18:20;6.33;;;3.23;;
25199;SDS011;33094;48.782;9.162;2023-07-16T00:20:45;5.10;;;3.75;;
25199;SDS011;33094;48.782;9.162;2023-07-16T00:23:11;3.43;;;2.97;;
25199;SDS011;33094;48.782;9.162;2023-07-16T00:25:36;4.27;;;3.70;;
25199;SDS011;33094;48.782;9.162;2023-07-16T00:28:02;4.47;;;3.03;;
25199;SDS011;33094;48.782;9.162;2023-07-16T00:30:28;8.30;;;3.20;;
25199;SDS011;33094;48.782;9.162;2023-07-16T00:32:53;4.87;;;3.07;;
25199;SDS011;33094;48.782;9.162;2023-07-16T00:35:19;3.95;;;2.80;;
25199;SDS011;33094;48.782;9.162;2023-07-16T00:37:44;6.07;;;3.13;;
25199;SDS011;33094;48.782;9.162;2023-07-16T00:40:10;3.80;;;3.50;;
25199;SDS011;33094;48.782;9.162;2023-07-16T00:42:36;2.53;;;2.23;;
25199;SDS011;33094;48.782;9.162;2023-07-16T00:45:02;3.95;;;2.60;;
25199;SDS011;33094;48.782;9.162;2023-07-16T00:47:33;3.00;;;2.70;;
25199;SDS011;33094;48.782;9.162;2023-07-16T00:49:59;3.50;;;3.15;;
25199;SDS011;33094;48.782;9.162;2023-07-16T00:52:24;3.43;;;2.70;;
25199;SDS011;33094;48.782;9.162;2023-07-16T00:54:50;4.17;;;3.13;;
25199;SDS011;33094;48.782;9.162;2023-07-16T00:57:16;3.47;;;3.00;;
25199;SDS011;33094;48.782;9.162;2023-07-16T00:59:42;5.35;;;2.58;;
25199;SDS011;33094;48.782;9.162;2023-07-16T01:02:08;4.28;;;3.00;;
25199;SDS011;33094;48.782;9.162;2023-07-16T01:04:33;3.87;;;2.33;;
25199;SDS011;33094;48.782;9.162;2023-07-16T01:07:00;3.28;;;2.47;;
25199;SDS011;33094;48.782;9.162;2023-07-16T01:09:29;3.47;;;2.40;;
25199;SDS011;33094;48.782;9.162;2023-07-16T01:11:56;3.42;;;2.55;;
25199;SDS011;33094;48.782;9.162;2023-07-16T01:14:25;7.13;;;2.50;;
25199;SDS011;33094;48.782;9.162;2023-07-16T01:16:51;3.50;;;2.40;;
25199;SDS011;33094;48.782;9.162;2023-07-16T01:19:23;3.70;;;2.70;;
25199;SDS011;33094;48.782;9.162;2023-07-16T01:27:50;3.15;;;2.45;;
25199;SDS011;33094;48.782;9.162;2023-07-16T01:30:42;5.30;;;2.60;;
25199;SDS011;33094;48.782;9.162;2023-07-16T01:33:09;5.10;;;2.80;;
25199;SDS011;33094;48.782;9.162;2023-07-16T01:35:36;3.38;;;2.60;;
25199;SDS011;33094;48.782;9.162;2023-07-16T01:38:03;3.30;;;2.30;;
25199;SDS011;33094;48.782;9.162;2023-07-16T01:40:29;3.22;;;2.45;;
25199;SDS011;33094;48.782;9.162;2023-07-16T01:42:55;3.13;;;2.83;;
25199;SDS011;33094;48.782;9.162;2023-07-16T01:45:21;2.27;;;1.90;;
25199;SDS011;33094;48.782;9.162;2023-07-16T01:50:39;3.80;;;2.28;;
25199;SDS011;33094;48.782;9.162;2023-07-16T01:53:05;1.88;;;1.77;;
25199;SDS011;33094;48.782;9.162;2023-07-16T01:55:31;1.90;;;1.55;;
25199;SDS011;33094;48.782;9.162;2023-07-16T01:57:56;3.00;;;1.87;;
25199;SDS011;33094;48.782;9.162;2023-07-16T02:00:22;1.87;;;1.70;;
25199;SDS011;33094;48.782;9.162;2023-07-16T02:02:48;4.53;;;1.93;;
25199;SDS011;33094;48.782;9.162;2023-07-16T02:05:14;1.87;;;1.67;;
25199;SDS011;33094;48.782;9.162;2023-07-16T02:07:40;3.00;;;2.20;;
25199;SDS011;33094;48.782;9.162;2023-07-16T02:10:05;2.65;;;1.70;;
25199;SDS011;33094;48.782;9.162;2023-07-16T02:12:31;2.23;;;1.97;;
25199;SDS011;33094;48.782;9.162;2023-07-16T02:14:57;1.77;;;1.38;;
25199;SDS011;33094;48.782;9.162;2023-07-16T02:17:23;2.17;;;1.77;;
25199;SDS011;33094;48.782;9.162;2023-07-16T02:19:48;1.97;;;1.40;;
25199;SDS011;33094;48.782;9.162;2023-07-16T02:22:14;5.90;;;1.60;;
25199;SDS011;33094;48.782;9.162;2023-07-16T02:24:40;5.53;;;1.73;;
25199;SDS011;33094;48.782;9.162;2023-07-16T02:27:05;3.30;;;1.67;;
25199;SDS011;33094;48.782;9.162;2023-07-16T02:29:31;3.35;;;1.63;;
25199;SDS011;33094;48.782;9.162;2023-07-16T02:31:57;2.23;;;1.60;;
25199;SDS011;33094;48.782;9.162;2023-07-16T02:34:22;1.77;;;1.47;;
25199;SDS011;33094;48.782;9.162;2023-07-16T02:36:48;3.53;;;1.80;;
25199;SDS011;33094;48.782;9.162;2023-07-16T02:39:13;2.22;;;1.50;;
25199;SDS011;33094;48.782;9.162;2023-07-16T02:41:39;5.13;;;1.70;;
25199;SDS011;33094;48.782;9.162;2023-07-16T02:44:05;1.83;;;1.60;;
25199;SDS011;33094;48.782;9.162;2023-07-16T02:46:31;5.57;;;2.47;;
25199;SDS011;33094;48.782;9.162;2023-07-16T02:48:58;3.22;;;1.30;;
25199;SDS011;33094;48.782;9.162;2023-07-16T02:51:23;3.95;;;1.63;;
25199;SDS011;33094;48.782;9.162;2023-07-16T02:53:49;3.85;;;1.80;;
25199;SDS011;33094;48.782;9.162;2023-07-16T02:56:15;3.77;;;1.57;;
25199;SDS011;33094;48.782;9.162;2023-07-16T02:58:41;1.95;;;1.60;;
25199;SDS011;33094;48.782;9.162;2023-07-16T03:01:07;4.27;;;1.50;;
25199;SDS011;33094;48.782;9.162;2023-07-16T03:03:33;1.48;;;1.38;;
25199;SDS011;33094;48.782;9.162;2023-07-16T03:05:58;2.00;;;1.73;;
25199;SDS011;33094;48.782;9.162;2023-07-16T03:08:24;1.77;;;1.60;;
25199;SDS011;33094;48.782;9.162;2023-07-16T03:10:54;4.35;;;1.90;;
25199;SDS011;33094;48.782;9.162;2023-07-16T03:13:21;5.38;;;1.70;;
25199;SDS011;33094;48.782;9.162;2023-07-16T03:15:47;2.40;;;1.60;;
25199;SDS011;33094;48.782;9.162;2023-07-16T03:18:12;1.70;;;1.57;;
25199;SDS011;33094;48.782;9.162;2023-07-16T03:20:38;2.50;;;1.80;;
25199;SDS011;33094;48.782;9.162;2023-07-16T03:23:03;3.93;;;2.00;;
25199;SDS011;33094;48.782;9.162;2023-07-16T03:25:29;9.38;;;2.00;;
25199;SDS011;33094;48.782;9.162;2023-07-16T03:27:55;3.53;;;1.87;;
25199;SDS011;33094;48.782;9.162;2023-07-16T03:30:20;2.47;;;1.60;;
25199;SDS011;33094;48.782;9.162;2023-07-16T03:32:46;1.85;;;1.50;;
25199;SDS011;33094;48.782;9.162;2023-07-16T03:35:11;4.13;;;1.50;;
25199;SDS011;33094;48.782;9.162;2023-07-16T03:37:37;4.67;;;1.87;;
25199;SDS011;33094;48.782;9.162;2023-07-16T03:40:13;2.27;;;1.67;;
25199;SDS011;33094;48.782;9.162;2023-07-16T03:42:43;2.65;;;1.83;;
25199;SDS011;33094;48.782;9.162;2023-07-16T03:45:10;2.47;;;2.03;;
25199;SDS011;33094;48.782;9.162;2023-07-16T03:47:36;4.85;;;1.92;;
25199;SDS011;33094;48.782;9.162;2023-07-16T03:50:02;4.93;;;2.67;;
25199;SDS011;33094;48.782;9.162;2023-07-16T03:52:28;5.40;;;2.20;;
25199;SDS011;33094;48.782;9.162;2023-07-16T03:54:54;3.45;;;1.77;;
25199;SDS011;33094;48.782;9.162;2023-07-16T03:57:20;4.70;;;2.03;;
25199;SDS011;33094;48.782;9.162;2023-07-16T03:59:45;5.45;;;2.10;;
25199;SDS011;33094;48.782;9.162;2023-07-16T04:02:11;4.20;;;1.73;;
25199;SDS011;33094;48.782;9.162;2023-07-16T04:04:36;4.85;;;2.40;;
25199;SDS011;33094;48.782;9.162;2023-07-16T04:07:02;7.53;;;2.40;;
25199;SDS011;33094;48.782;9.162;2023-07-16T04:09:28;5.00;;;2.07;;
25199;SDS011;33094;48.782;9.162;2023-07-16T04:11:53;6.00;;;1.80;;
25199;SDS011;33094;48.782;9.162;2023-07-16T04:14:19;6.73;;;2.47;;
25199;SDS011;33094;48.782;9.162;2023-07-16T04:16:45;3.93;;;1.43;;
25199;SDS011;33094;48.782;9.162;2023-07-16T04:19:10;4.43;;;1.80;;
25199;SDS011;33094;48.782;9.162;2023-07-16T04:21:36;2.40;;;1.90;;
25199;SDS011;33094;48.782;9.162;2023-07-16T04:24:02;3.25;;;2.08;;
25199;SDS011;33094;48.782;9.162;2023-07-16T04:26:28;5.60;;;2.20;;
25199;SDS011;33094;48.782;9.162;2023-07-16T04:28:54;4.60;;;1.92;;
25199;SDS011;33094;48.782;9.162;2023-07-16T04:31:19;2.95;;;1.75;;
25199;SDS011;33094;48.782;9.162;2023-07-16T04:33:45;4.38;;;2.25;;
25199;SDS011;33094;48.782;9.162;2023-07-16T04:36:11;1.80;;;1.52;;
25199;SDS011;33094;48.782;9.162;2023-07-16T04:38:36;1.93;;;1.63;;
25199;SDS011;33094;48.782;9.162;2023-07-16T04:41:02;4.60;;;2.07;;
25199;SDS011;33094;48.782;9.162;2023-07-16T04:43:27;2.97;;;1.93;;
25199;SDS011;33094;48.782;9.162;2023-07-16T04:45:53;4.93;;;2.10;;
25199;SDS011;33094;48.782;9.162;2023-07-16T04:48:19;3.40;;;1.93;;
25199;SDS011;33094;48.782;9.162;2023-07-16T04:50:44;2.80;;;2.15;;
25199;SDS011;33094;48.782;9.162;2023-07-16T04:53:10;3.92;;;2.00;;
25199;SDS011;33094;48.782;9.162;2023-07-16T04:55:36;3.17;;;2.23;;
25199;SDS011;33094;48.782;9.162;2023-07-16T04:58:02;2.70;;;2.05;;
25199;SDS011;33094;48.782;9.162;2023-07-16T05:00:28;6.15;;;1.90;;
25199;SDS011;33094;48.782;9.162;2023-07-16T05:02:54;3.83;;;2.20;;
25199;SDS011;33094;48.782;9.162;2023-07-16T05:05:19;3.97;;;2.30;;
25199;SDS011;33094;48.782;9.162;2023-07-16T05:07:45;5.57;;;1.80;;
25199;SDS011;33094;48.782;9.162;2023-07-16T05:10:11;4.47;;;2.20;;
25199;SDS011;33094;48.782;9.162;2023-07-16T05:12:36;8.05;;;2.00;;
25199;SDS011;33094;48.782;9.162;2023-07-16T05:15:02;4.60;;;2.28;;
25199;SDS011;33094;48.782;9.162;2023-07-16T05:17:28;7.10;;;1.97;;
25199;SDS011;33094;48.782;9.162;2023-07-16T05:19:53;2.20;;;2.00;;
25199;SDS011;33094;48.782;9.162;2023-07-16T05:22:19;2.60;;;2.13;;
25199;SDS011;33094;48.782;9.162;2023-07-16T05:24:45;6.90;;;2.17;;
25199;SDS011;33094;48.782;9.162;2023-07-16T05:27:10;7.95;;;2.15;;
25199;SDS011;33094;48.782;9.162;2023-07-16T05:29:36;3.03;;;2.00;;
25199;SDS011;33094;48.782;9.162;2023-07-16T05:32:02;6.53;;;1.88;;
25199;SDS011;33094;48.782;9.162;2023-07-16T05:34:28;4.95;;;1.85;;
25199;SDS011;33094;48.782;9.162;2023-07-16T05:36:54;9.50;;;2.00;;
25199;SDS011;33094;48.782;9.162;2023-07-16T05:39:20;4.32;;;2.03;;
25199;SDS011;33094;48.782;9.162;2023-07-16T05:41:49;8.15;;;2.00;;
25199;SDS011;33094;48.782;9.162;2023-07-16T05:44:14;3.13;;;1.92;;
25199;SDS011;33094;48.782;9.162;2023-07-16T05:46:40;5.95;;;2.05;;
25199;SDS011;33094;48.782;9.162;2023-07-16T05:49:05;1.70;;;1.60;;
25199;SDS011;33094;48.782;9.162;2023-07-16T05:51:31;11.37;;;1.93;;
25199;SDS011;33094;48.782;9.162;2023-07-16T05:53:57;4.17;;;1.97;;
25199;SDS011;33094;48.782;9.162;2023-07-16T05:56:23;4.10;;;2.03;;
25199;SDS011;33094;48.782;9.162;2023-07-16T05:58:48;5.73;;;2.27;;
25199;SDS011;33094;48.782;9.162;2023-07-16T06:01:14;11.33;;;2.43;;
25199;SDS011;33094;48.782;9.162;2023-07-16T06:03:39;5.80;;;2.23;;
25199;SDS011;33094;48.782;9.162;2023-07-16T06:06:05;8.30;;;2.20;;
25199;SDS011;33094;48.782;9.162;2023-07-16T06:08:33;4.80;;;1.92;;
25199;SDS011;33094;48.782;9.162;2023-07-16T06:13:27;4.32;;;2.00;;
25199;SDS011;33094;48.782;9.162;2023-07-16T06:15:53;3.70;;;1.90;;
25199;SDS011;33094;48.782;9.162;2023-07-16T06:18:18;5.87;;;2.97;;
25199;SDS011;33094;48.782;9.162;2023-07-16T06:23:33;8.07;;;2.05;;
25199;SDS011;33094;48.782;9.162;2023-07-16T06:25:58;9.40;;;1.98;;
25199;SDS011;33094;48.782;9.162;2023-07-16T06:28:24;10.63;;;2.70;;
25199;SDS011;33094;48.782;9.162;2023-07-16T06:30:50;6.07;;;1.90;;
25199;SDS011;33094;48.782;9.162;2023-07-16T06:33:18;6.45;;;2.25;;
25199;SDS011;33094;48.782;9.162;2023-07-16T06:35:45;9.00;;;1.95;;
25199;SDS011;33094;48.782;9.162;2023-07-16T06:38:12;8.10;;;2.17;;
25199;SDS011;33094;48.782;9.162;2023-07-16T06:40:38;6.35;;;2.28;;
25199;SDS011;33094;48.782;9.162;2023-07-16T06:43:04;9.07;;;2.30;;
25199;SDS011;33094;48.782;9.162;2023-07-16T06:45:30;4.43;;;2.17;;
25199;SDS011;33094;48.782;9.162;2023-07-16T06:47:55;5.87;;;2.07;;
25199;SDS011;33094;48.782;9.162;2023-07-16T06:50:21;5.27;;;1.93;;
25199;SDS011;33094;48.782;9.162;2023-07-16T06:52:47;8.80;;;2.40;;
25199;SDS011;33094;48.782;9.162;2023-07-16T06:55:12;5.00;;;1.83;;
25199;SDS011;33094;48.782;9.162;2023-07-16T06:57:38;4.73;;;1.83;;
25199;SDS011;33094;48.782;9.162;2023-07-16T07:00:04;6.60;;;1.80;;
25199;SDS011;33094;48.782;9.162;2023-07-16T07:02:31;5.40;;;2.03;;
25199;SDS011;33094;48.782;9.162;2023-07-16T07:04:56;4.10;;;2.43;;
25199;SDS011;33094;48.782;9.162;2023-07-16T07:07:23;3.47;;;1.55;;
25199;SDS011;33094;48.782;9.162;2023-07-16T07:09:49;6.70;;;2.00;;
25199;SDS011;33094;48.782;9.162;2023-07-16T07:12:14;3.77;;;1.87;;
25199;SDS011;33094;48.782;9.162;2023-07-16T07:14:40;6.17;;;2.03;;
25199;SDS011;33094;48.782;9.162;2023-07-16T07:17:06;3.80;;;1.80;;
25199;SDS011;33094;48.782;9.162;2023-07-16T07:19:31;5.33;;;1.80;;
25199;SDS011;33094;48.782;9.162;2023-07-16T07:21:57;5.73;;;1.77;;
25199;SDS011;33094;48.782;9.162;2023-07-16T07:24:23;4.50;;;1.93;;
25199;SDS011;33094;48.782;9.162;2023-07-16T07:26:48;5.63;;;2.33;;
25199;SDS011;33094;48.782;9.162;2023-07-16T07:29:14;3.43;;;2.17;;
25199;SDS011;33094;48.782;9.162;2023-07-16T07:31:40;9.37;;;2.07;;
25199;SDS011;33094;48.782;9.162;2023-07-16T07:34:06;8.83;;;2.20;;
25199;SDS011;33094;48.782;9.162;2023-07-16T07:36:34;4.30;;;2.37;;
25199;SDS011;33094;48.782;9.162;2023-07-16T07:39:00;7.72;;;2.08;;
25199;SDS011;33094;48.782;9.162;2023-07-16T07:41:26;4.30;;;2.30;;
25199;SDS011;33094;48.782;9.162;2023-07-16T07:43:51;3.50;;;1.87;;
25199;SDS011;33094;48.782;9.162;2023-07-16T07:49:47;7.20;;;2.15;;
25199;SDS011;33094;48.782;9.162;2023-07-16T07:52:14;6.05;;;2.20;;
25199;SDS011;33094;48.782;9.162;2023-07-16T07:54:41;8.20;;;2.30;;
25199;SDS011;33094;48.782;9.162;2023-07-16T07:57:07;7.30;;;2.00;;
25199;SDS011;33094;48.782;9.162;2023-07-16T07:59:32;3.70;;;2.07;;
25199;SDS011;33094;48.782;9.162;2023-07-16T08:02:04;10.18;;;2.33;;
25199;SDS011;33094;48.782;9.162;2023-07-16T08:04:30;6.82;;;2.08;;
25199;SDS011;33094;48.782;9.162;2023-07-16T08:06:57;7.78;;;2.72;;
25199;SDS011;33094;48.782;9.162;2023-07-16T08:09:23;6.95;;;2.10;;
25199;SDS011;33094;48.782;9.162;2023-07-16T08:11:51;4.20;;;2.20;;
25199;SDS011;33094;48.782;9.162;2023-07-16T08:14:30;4.40;;;2.50;;
25199;SDS011;33094;48.782;9.162;2023-07-16T08:17:02;4.10;;;1.70;;
25199;SDS011;33094;48.782;9.162;2023-07-16T08:19:27;8.10;;;2.30;;
25199;SDS011;33094;48.782;9.162;2023-07-16T08:21:53;7.30;;;1.80;;
25199;SDS011;33094;48.782;9.162;2023-07-16T08:24:19;4.63;;;1.93;;
25199;SDS011;33094;48.782;9.162;2023-07-16T08:26:47;5.30;;;2.40;;
25199;SDS011;33094;48.782;9.162;2023-07-16T08:29:17;3.22;;;1.85;;
25199;SDS011;33094;48.782;9.162;2023-07-16T08:31:43;6.47;;;2.20;;
25199;SDS011;33094;48.782;9.162;2023-07-16T08:34:08;3.50;;;1.90;;
25199;SDS011;33094;48.782;9.162;2023-07-16T08:36:34;2.50;;;1.80;;
25199;SDS011;33094;48.782;9.162;2023-07-16T08:47:11;4.15;;;2.17;;
25199;SDS011;33094;48.782;9.162;2023-07-16T08:52:39;5.45;;;2.05;;
25199;SDS011;33094;48.782;9.162;2023-07-16T08:55:05;3.85;;;1.75;;
25199;SDS011;33094;48.782;9.162;2023-07-16T08:57:31;4.65;;;1.55;;
25199;SDS011;33094;48.782;9.162;2023-07-16T08:59:57;3.03;;;1.67;;
25199;SDS011;33094;48.782;9.162;2023-07-16T09:02:26;7.00;;;2.30;;
25199;SDS011;33094;48.782;9.162;2023-07-16T09:04:52;4.35;;;2.08;;
25199;SDS011;33094;48.782;9.162;2023-07-16T09:07:18;6.97;;;2.15;;
25199;SDS011;33094;48.782;9.162;2023-07-16T09:09:43;3.87;;;1.60;;
25199;SDS011;33094;48.782;9.162;2023-07-16T09:12:23;4.85;;;1.75;;
25199;SDS011;33094;48.782;9.162;2023-07-16T09:14:49;3.28;;;1.90;;
25199;SDS011;33094;48.782;9.162;2023-07-16T09:17:19;4.73;;;1.80;;
25199;SDS011;33094;48.782;9.162;2023-07-16T09:19:49;4.28;;;1.80;;
25199;SDS011;33094;48.782;9.162;2023-07-16T09:22:19;5.53;;;1.65;;
25199;SDS011;33094;48.782;9.162;2023-07-16T09:24:46;2.58;;;1.60;;
25199;SDS011;33094;48.782;9.162;2023-07-16T09:27:12;3.92;;;2.05;;
25199;SDS011;33094;48.782;9.162;2023-07-16T09:29:38;3.33;;;1.95;;
25199;SDS011;33094;48.782;9.162;2023-07-16T09:32:04;2.22;;;1.95;;
25199;SDS011;33094;48.782;9.162;2023-07-16T09:34:30;2.05;;;1.50;;
25199;SDS011;33094;48.782;9.162;2023-07-16T09:36:57;4.75;;;1.80;;
25199;SDS011;33094;48.782;9.162;2023-07-16T09:39:24;3.67;;;2.00;;
25199;SDS011;33094;48.782;9.162;2023-07-16T09:41:51;4.13;;;1.80;;
25199;SDS011;33094;48.782;9.162;2023-07-16T09:44:17;3.90;;;1.70;;
25199;SDS011;33094;48.782;9.162;2023-07-16T09:46:44;3.40;;;1.58;;
25199;SDS011;33094;48.782;9.162;2023-07-16T09:54:03;4.07;;;1.70;;
25199;SDS011;33094;48.782;9.162;2023-07-16T09:59:05;2.50;;;1.50;;
25199;SDS011;33094;48.782;9.162;2023-07-16T10:01:36;3.15;;;1.90;;
25199;SDS011;33094;48.782;9.162;2023-07-16T10:07:05;3.03;;;2.28;;
25199;SDS011;33094;48.782;9.162;2023-07-16T10:12:14;3.67;;;1.83;;
25199;SDS011;33094;48.782;9.162;2023-07-16T10:14:54;3.80;;;1.60;;
25199;SDS011;33094;48.782;9.162;2023-07-16T10:17:24;3.13;;;1.60;;
25199;SDS011;33094;48.782;9.162;2023-07-16T10:19:58;2.78;;;1.65;;
25199;SDS011;33094;48.782;9.162;2023-07-16T10:22:42;2.33;;;1.88;;
25199;SDS011;33094;48.782;9.162;2023-07-16T10:27:42;3.85;;;2.03;;
25199;SDS011;33094;48.782;9.162;2023-07-16T10:30:09;3.85;;;1.73;;
25199;SDS011;33094;48.782;9.162;2023-07-16T10:32:35;2.45;;;1.70;;
25199;SDS011;33094;48.782;9.162;2023-07-16T10:35:01;6.50;;;1.95;;
25199;SDS011;33094;48.782;9.162;2023-07-16T10:37:27;5.78;;;1.77;;
25199;SDS011;33094;48.782;9.162;2023-07-16T10:39:54;2.63;;;1.88;;
25199;SDS011;33094;48.782;9.162;2023-07-16T10:42:25;2.78;;;1.67;;
25199;SDS011;33094;48.782;9.162;2023-07-16T10:44:53;7.97;;;2.15;;
25199;SDS011;33094;48.782;9.162;2023-07-16T10:47:50;3.08;;;1.98;;
25199;SDS011;33094;48.782;9.162;2023-07-16T10:50:19;4.47;;;3.70;;
25199;SDS011;33094;48.782;9.162;2023-07-16T10:52:46;2.33;;;1.52;;
25199;SDS011;33094;48.782;9.162;2023-07-16T10:55:18;3.63;;;1.90;;
25199;SDS011;33094;48.782;9.162;2023-07-16T10:57:46;5.90;;;2.40;;
25199;SDS011;33094;48.782;9.162;2023-07-16T11:00:13;3.63;;;1.88;;
25199;SDS011;33094;48.782;9.162;2023-07-16T11:02:39;3.15;;;1.95;;
25199;SDS011;33094;48.782;9.162;2023-07-16T11:05:05;2.58;;;1.50;;
25199;SDS011;33094;48.782;9.162;2023-07-16T11:07:36;4.07;;;1.95;;
25199;SDS011;33094;48.782;9.162;2023-07-16T11:10:02;3.17;;;1.75;;
25199;SDS011;33094;48.782;9.162;2023-07-16T11:12:28;4.75;;;1.75;;
25199;SDS011;33094;48.782;9.162;2023-07-16T11:14:55;2.85;;;1.70;;
25199;SDS011;33094;48.782;9.162;2023-07-16T11:17:22;3.15;;;2.08;;
25199;SDS011;33094;48.782;9.162;2023-07-16T11:19:50;4.20;;;2.00;;
25199;SDS011;33094;48.782;9.162;2023-07-16T11:22:16;3.85;;;2.20;;
25199;SDS011;33094;48.782;9.162;2023-07-16T11:24:46;4.60;;;1.75;;
25199;SDS011;33094;48.782;9.162;2023-07-16T11:27:21;2.92;;;1.63;;
25199;SDS011;33094;48.782;9.162;2023-07-16T11:29:47;4.32;;;1.80;;
25199;SDS011;33094;48.782;9.162;2023-07-16T11:34:52;2.72;;;1.60;;
25199;SDS011;33094;48.782;9.162;2023-07-16T11:37:19;3.65;;;2.00;;
25199;SDS011;33094;48.782;9.162;2023-07-16T11:39:46;3.60;;;1.58;;
25199;SDS011;33094;48.782;9.162;2023-07-16T11:42:12;3.00;;;1.90;;
25199;SDS011;33094;48.782;9.162;2023-07-16T11:44:38;3.13;;;1.97;;
25199;SDS011;33094;48.782;9.162;2023-07-16T11:47:04;5.57;;;2.03;;
25199;SDS011;33094;48.782;9.162;2023-07-16T11:49:29;2.35;;;1.85;;
25199;SDS011;33094;48.782;9.162;2023-07-16T11:51:56;3.80;;;1.88;;
25199;SDS011;33094;48.782;9.162;2023-07-16T11:54:23;2.35;;;1.90;;
25199;SDS011;33094;48.782;9.162;2023-07-16T11:56:49;3.08;;;1.65;;
25199;SDS011;33094;48.782;9.162;2023-07-16T11:59:15;4.57;;;2.10;;
25199;SDS011;33094;48.782;9.162;2023-07-16T12:01:45;4.03;;;1.95;;
25199;SDS011;33094;48.782;9.162;2023-07-16T12:04:13;4.97;;;2.47;;
25199;SDS011;33094;48.782;9.162;2023-07-16T12:06:39;7.28;;;2.08;;
25199;SDS011;33094;48.782;9.162;2023-07-16T12:09:05;2.47;;;2.27;;
25199;SDS011;33094;48.782;9.162;2023-07-16T12:11:31;3.95;;;2.30;;
25199;SDS011;33094;48.782;9.162;2023-07-16T12:13:56;3.28;;;2.13;;
25199;SDS011;33094;48.782;9.162;2023-07-16T12:16:22;4.20;;;1.90;;
25199;SDS011;33094;48.782;9.162;2023-07-16T12:18:47;5.60;;;1.97;;
25199;SDS011;33094;48.782;9.162;2023-07-16T12:21:13;4.50;;;2.28;;
25199;SDS011;33094;48.782;9.162;2023-07-16T12:23:39;4.80;;;2.38;;
25199;SDS011;33094;48.782;9.162;2023-07-16T12:26:04;2.95;;;1.77;;
25199;SDS011;33094;48.782;9.162;2023-07-16T12:28:30;2.90;;;1.60;;
25199;SDS011;33094;48.782;9.162;2023-07-16T12:30:56;2.78;;;1.85;;
25199;SDS011;33094;48.782;9.162;2023-07-16T12:33:21;3.00;;;1.80;;
25199;SDS011;33094;48.782;9.162;2023-07-16T12:35:47;3.55;;;1.98;;
25199;SDS011;33094;48.782;9.162;2023-07-16T12:38:12;3.40;;;1.83;;
25199;SDS011;33094;48.782;9.162;2023-07-16T12:40:38;2.15;;;1.83;;
25199;SDS011;33094;48.782;9.162;2023-07-16T12:43:06;4.13;;;2.20;;
25199;SDS011;33094;48.782;9.162;2023-07-16T12:45:32;2.92;;;1.73;;
25199;SDS011;33094;48.782;9.162;2023-07-16T12:47:58;1.60;;;1.50;;
25199;SDS011;33094;48.782;9.162;2023-07-16T12:50:23;1.77;;;1.60;;
25199;SDS011;33094;48.782;9.162;2023-07-16T12:52:50;4.55;;;2.00;;
25199;SDS011;33094;48.782;9.162;2023-07-16T12:55:17;1.98;;;1.80;;
25199;SDS011;33094;48.782;9.162;2023-07-16T12:57:42;2.88;;;2.15;;
25199;SDS011;33094;48.782;9.162;2023-07-16T13:00:08;6.95;;;1.80;;
25199;SDS011;33094;48.782;9.162;2023-07-16T13:02:35;6.93;;;1.90;;
25199;SDS011;33094;48.782;9.162;2023-07-16T13:05:02;3.25;;;2.08;;
25199;SDS011;33094;48.782;9.162;2023-07-16T13:07:28;4.10;;;2.03;;
25199;SDS011;33094;48.782;9.162;2023-07-16T13:09:54;4.53;;;1.83;;
25199;SDS011;33094;48.782;9.162;2023-07-16T13:12:19;6.95;;;1.88;;
25199;SDS011;33094;48.782;9.162;2023-07-16T13:14:45;6.72;;;2.10;;
25199;SDS011;33094;48.782;9.162;2023-07-16T13:17:10;2.70;;;1.90;;
25199;SDS011;33094;48.782;9.162;2023-07-16T13:19:36;3.83;;;2.08;;
25199;SDS011;33094;48.782;9.162;2023-07-16T13:22:02;3.53;;;2.05;;
25199;SDS011;33094;48.782;9.162;2023-07-16T13:24:27;2.65;;;1.80;;
25199;SDS011;33094;48.782;9.162;2023-07-16T13:26:53;3.07;;;1.60;;
25199;SDS011;33094;48.782;9.162;2023-07-16T13:29:19;4.80;;;1.93;;
25199;SDS011;33094;48.782;9.162;2023-07-16T13:31:44;2.87;;;2.20;;
25199;SDS011;33094;48.782;9.162;2023-07-16T13:34:10;3.53;;;2.40;;
25199;SDS011;33094;48.782;9.162;2023-07-16T13:36:36;6.63;;;2.03;;
25199;SDS011;33094;48.782;9.162;2023-07-16T13:39:01;3.90;;;2.03;;
25199;SDS011;33094;48.782;9.162;2023-07-16T13:41:29;6.50;;;2.40;;
25199;SDS011;33094;48.782;9.162;2023-07-16T13:43:55;2.97;;;2.10;;
25199;SDS011;33094;48.782;9.162;2023-07-16T13:46:21;3.50;;;2.07;;
25199;SDS011;33094;48.782;9.162;2023-07-16T13:48:47;3.30;;;1.93;;
25199;SDS011;33094;48.782;9.162;2023-07-16T13:51:12;4.80;;;2.50;;
25199;SDS011;33094;48.782;9.162;2023-07-16T13:53:38;4.17;;;2.43;;
25199;SDS011;33094;48.782;9.162;2023-07-16T13:56:05;3.03;;;2.72;;
25199;SDS011;33094;48.782;9.162;2023-07-16T13:58:31;2.87;;;2.20;;
25199;SDS011;33094;48.782;9.162;2023-07-16T14:00:56;6.67;;;2.60;;
25199;SDS011;33094;48.782;9.162;2023-07-16T14:03:22;3.40;;;1.90;;
25199;SDS011;33094;48.782;9.162;2023-07-16T14:05:48;4.17;;;1.80;;
25199;SDS011;33094;48.782;9.162;2023-07-16T14:08:13;5.33;;;2.00;;
25199;SDS011;33094;48.782;9.162;2023-07-16T14:10:39;5.00;;;2.03;;
25199;SDS011;33094;48.782;9.162;2023-07-16T14:13:05;3.27;;;2.10;;
25199;SDS011;33094;48.782;9.162;2023-07-16T14:15:30;4.87;;;2.30;;
25199;SDS011;33094;48.782;9.162;2023-07-16T14:17:56;5.00;;;1.90;;
25199;SDS011;33094;48.782;9.162;2023-07-16T14:20:22;2.37;;;1.77;;
25199;SDS011;33094;48.782;9.162;2023-07-16T14:22:47;3.17;;;2.00;;
25199;SDS011;33094;48.782;9.162;2023-07-16T14:25:13;2.40;;;2.13;;
25199;SDS011;33094;48.782;9.162;2023-07-16T14:27:39;2.40;;;2.20;;
25199;SDS011;33094;48.782;9.162;2023-07-16T14:30:04;6.57;;;2.50;;
25199;SDS011;33094;48.782;9.162;2023-07-16T14:32:31;3.60;;;2.30;;
25199;SDS011;33094;48.782;9.162;2023-07-16T14:34:57;2.83;;;2.00;;
25199;SDS011;33094;48.782;9.162;2023-07-16T14:37:22;4.93;;;2.13;;
25199;SDS011;33094;48.782;9.162;2023-07-16T14:39:48;4.93;;;2.40;;
25199;SDS011;33094;48.782;9.162;2023-07-16T14:44:40;5.80;;;2.10;;
25199;SDS011;33094;48.782;9.162;2023-07-16T14:47:06;2.17;;;1.83;;
25199;SDS011;33094;48.782;9.162;2023-07-16T14:49:31;3.00;;;2.60;;
25199;SDS011;33094;48.782;9.162;2023-07-16T14:51:57;3.13;;;2.60;;
25199;SDS011;33094;48.782;9.162;2023-07-16T14:54:23;5.45;;;2.30;;
25199;SDS011;33094;48.782;9.162;2023-07-16T14:56:49;3.20;;;2.10;;
25199;SDS011;33094;48.782;9.162;2023-07-16T14:59:14;4.93;;;3.70;;
25199;SDS011;33094;48.782;9.162;2023-07-16T15:01:40;6.43;;;2.23;;
25199;SDS011;33094;48.782;9.162;2023-07-16T15:04:06;2.45;;;2.00;;
25199;SDS011;33094;48.782;9.162;2023-07-16T15:06:32;3.10;;;2.30;;
25199;SDS011;33094;48.782;9.162;2023-07-16T15:08:57;4.80;;;2.50;;
25199;SDS011;33094;48.782;9.162;2023-07-16T15:11:23;3.20;;;2.23;;
25199;SDS011;33094;48.782;9.162;2023-07-16T15:13:49;3.93;;;2.00;;
25199;SDS011;33094;48.782;9.162;2023-07-16T15:16:14;3.13;;;2.30;;
25199;SDS011;33094;48.782;9.162;2023-07-16T15:18:40;4.73;;;2.40;;
25199;SDS011;33094;48.782;9.162;2023-07-16T15:21:06;3.10;;;2.27;;
25199;SDS011;33094;48.782;9.162;2023-07-16T15:23:31;4.03;;;2.20;;
25199;SDS011;33094;48.782;9.162;2023-07-16T15:26:01;4.60;;;2.70;;
25199;SDS011;33094;48.782;9.162;2023-07-16T15:28:28;3.88;;;2.10;;
25199;SDS011;33094;48.782;9.162;2023-07-16T15:30:58;4.72;;;2.58;;
25199;SDS011;33094;48.782;9.162;2023-07-16T15:33:25;5.45;;;2.33;;